createdAt,value
2019-05-09T00:01:44.831Z,89.58
2019-05-09T00:04:13.934Z,89.75
2019-05-09T00:06:43.069Z,89.41
2019-05-09T00:09:10.123Z,89.87
2019-05-09T00:11:37.194Z,90.03
2019-05-09T00:14:04.723Z,90.22
2019-05-09T00:16:33.492Z,90.55
2019-05-09T00:19:03.298Z,90.91
2019-05-09T00:21:30.240Z,90.73
2019-05-09T00:23:58.304Z,90.94
2019-05-09T00:26:25.371Z,90.92
2019-05-09T00:28:53.388Z,90.85
2019-05-09T00:31:20.819Z,90.90
2019-05-09T00:33:48.308Z,90.90
2019-05-09T00:36:15.464Z,90.60
2019-05-09T00:38:43.474Z,90.41
2019-05-09T00:41:10.652Z,90.52
2019-05-09T00:43:37.725Z,90.59
2019-05-09T00:46:04.824Z,90.95
2019-05-09T00:48:33.674Z,90.63
2019-05-09T00:51:03.270Z,90.55
2019-05-09T00:53:30.124Z,90.81
2019-05-09T00:55:57.468Z,90.91
2019-05-09T00:58:24.798Z,90.95
2019-05-09T01:00:53.297Z,91.01
2019-05-09T01:03:20.841Z,90.79
2019-05-09T01:05:48.297Z,90.88
2019-05-09T01:08:15.654Z,90.93
2019-05-09T01:10:43.662Z,90.75
2019-05-09T01:13:10.901Z,90.74
2019-05-09T01:15:38.336Z,90.78
2019-05-09T01:18:05.690Z,90.38
2019-05-09T01:20:33.851Z,90.24
2019-05-09T01:23:03.315Z,90.22
2019-05-09T01:25:29.712Z,90.17
2019-05-09T01:27:56.785Z,90.24
2019-05-09T01:30:24.289Z,89.85
2019-05-09T01:32:53.829Z,89.52
2019-05-09T01:35:20.554Z,89.46
2019-05-09T01:37:48.701Z,89.57
2019-05-09T01:40:15.785Z,89.60
2019-05-09T01:42:43.343Z,89.64
2019-05-09T01:45:10.393Z,89.61
2019-05-09T01:47:37.768Z,89.43
2019-05-09T01:50:04.945Z,89.48
2019-05-09T01:52:33.770Z,89.38
2019-05-09T01:55:03.576Z,89.42
2019-05-09T01:57:30.433Z,89.43
2019-05-09T01:59:57.504Z,89.35
2019-05-09T02:02:24.942Z,88.22
2019-05-09T02:04:53.319Z,88.71
2019-05-09T02:07:20.744Z,89.17
2019-05-09T02:09:48.130Z,89.34
2019-05-09T02:12:15.214Z,89.93
2019-05-09T02:14:43.721Z,90.22
2019-05-09T02:17:11.253Z,90.20
2019-05-09T02:19:38.704Z,90.10
2019-05-09T02:22:06.756Z,89.96
2019-05-09T02:24:33.947Z,89.94
2019-05-09T02:27:01.127Z,89.50
2019-05-09T02:29:28.465Z,89.67
2019-05-09T02:31:55.549Z,89.89
2019-05-09T02:34:24.844Z,90.21
2019-05-09T02:36:52.006Z,90.58
2019-05-09T02:39:19.366Z,91.04
2019-05-09T02:42:01.017Z,91.26
2019-05-09T02:44:15.816Z,91.68
2019-05-09T02:46:42.899Z,91.57
2019-05-09T02:49:09.998Z,91.63
2019-05-09T02:51:38.684Z,91.47
2019-05-09T02:54:09.553Z,91.23
2019-05-09T02:56:34.856Z,90.88
2019-05-09T02:59:01.922Z,90.63
2019-05-09T03:01:29.552Z,90.17
2019-05-09T03:03:58.908Z,89.98
2019-05-09T03:06:28.305Z,89.83
2019-05-09T03:08:54.611Z,89.87
2019-05-09T03:11:21.687Z,90.04
2019-05-09T03:13:49.743Z,90.10
2019-05-09T03:16:19.072Z,90.17
2019-05-09T03:18:45.624Z,90.15
2019-05-09T03:21:12.697Z,90.00
2019-05-09T03:23:39.780Z,90.10
2019-05-09T03:26:09.170Z,90.28
2019-05-09T03:28:38.644Z,90.32
2019-05-09T03:31:05.095Z,90.53
2019-05-09T03:33:35.574Z,90.67
2019-05-09T03:36:01.230Z,90.79
2019-05-09T03:38:28.686Z,90.96
2019-05-09T03:40:58.002Z,91.09
2019-05-09T03:43:27.302Z,91.10
2019-05-09T03:45:54.816Z,91.04
2019-05-09T03:48:22.222Z,90.71
2019-05-09T03:50:49.660Z,90.71
2019-05-09T03:53:18.471Z,90.67
2019-05-09T03:55:47.464Z,90.79
2019-05-09T03:58:14.568Z,90.95
2019-05-09T04:00:41.946Z,90.91
2019-05-09T04:03:09.430Z,90.58
2019-05-09T04:05:37.678Z,90.36
2019-05-09T04:10:46.965Z,90.12
2019-05-09T04:13:18.860Z,90.16
2019-05-09T04:15:47.725Z,90.15
2019-05-09T04:18:15.039Z,90.20
2019-05-09T04:20:42.430Z,90.01
2019-05-09T04:23:09.519Z,89.96
2019-05-09T04:25:37.657Z,89.86
2019-05-09T04:28:04.908Z,89.22
2019-05-09T04:30:32.328Z,88.22
2019-05-09T04:32:59.711Z,86.96
2019-05-09T04:35:27.984Z,85.76
2019-05-09T04:37:55.543Z,76.75
2019-05-09T04:40:22.983Z,71.52
2019-05-09T04:42:50.219Z,63.85
2019-05-09T04:45:17.773Z,57.21
2019-05-09T04:47:47.195Z,56.44
2019-05-09T04:50:15.423Z,53.81
2019-05-09T04:52:43.746Z,59.31
2019-05-09T04:55:10.832Z,60.40
2019-05-09T04:57:38.362Z,64.09
2019-05-09T05:00:07.595Z,66.84
2019-05-09T05:02:34.942Z,69.48
2019-05-09T05:05:02.033Z,69.67
2019-05-09T05:07:29.111Z,63.78
2019-05-09T05:09:57.750Z,54.08
2019-05-09T05:12:25.148Z,48.98
2019-05-09T05:14:52.236Z,43.89
2019-05-09T05:17:19.654Z,42.33
2019-05-09T05:19:47.791Z,41.74
2019-05-09T05:22:17.958Z,45.29
2019-05-09T05:24:44.381Z,48.73
2019-05-09T05:27:11.868Z,51.70
2019-05-09T05:29:38.963Z,48.70
2019-05-09T05:32:08.472Z,42.70
2019-05-09T05:34:37.726Z,40.95
2019-05-09T05:37:04.438Z,37.07
2019-05-09T05:39:31.892Z,33.98
2019-05-09T05:41:58.968Z,34.91
2019-05-09T05:44:28.307Z,34.29
2019-05-09T05:46:55.395Z,34.11
2019-05-09T05:49:22.744Z,31.10
2019-05-09T05:51:49.831Z,31.27
2019-05-09T05:54:18.167Z,33.44
2019-05-09T05:56:47.463Z,36.55
2019-05-09T05:59:14.613Z,41.24
2019-05-09T06:01:41.705Z,45.75
2019-05-09T06:04:09.130Z,48.86
2019-05-09T06:06:37.482Z,51.05
2019-05-09T06:09:04.911Z,52.84
2019-05-09T06:11:32.251Z,55.25
2019-05-09T06:14:08.075Z,55.44
2019-05-09T06:16:28.463Z,55.01
2019-05-09T06:18:58.344Z,56.66
2019-05-09T06:21:28.106Z,56.65
2019-05-09T06:23:54.703Z,55.67
2019-05-09T06:26:21.811Z,56.93
2019-05-09T06:28:49.143Z,57.38
2019-05-09T06:31:17.936Z,58.38
2019-05-09T06:33:47.565Z,60.78
2019-05-09T06:36:14.701Z,63.58
2019-05-09T06:38:42.137Z,64.82
2019-05-09T06:41:12.092Z,65.67
2019-05-09T06:43:39.474Z,65.79
2019-05-09T06:46:08.097Z,65.41
2019-05-09T06:48:37.637Z,65.99
2019-05-09T06:51:04.186Z,66.10
2019-05-09T06:53:31.262Z,65.88
2019-05-09T06:55:58.665Z,66.16
2019-05-09T06:58:27.676Z,65.76
2019-05-09T07:00:58.287Z,67.24
2019-05-09T07:03:24.629Z,66.94
2019-05-09T07:05:51.703Z,65.88
2019-05-09T07:08:19.963Z,64.57
2019-05-09T07:10:48.381Z,63.63
2019-05-09T07:13:15.540Z,61.33
2019-05-09T07:15:42.906Z,59.67
2019-05-09T07:18:09.991Z,59.80
2019-05-09T07:20:37.952Z,60.42
2019-05-09T07:23:09.058Z,60.32
2019-05-09T07:25:37.820Z,60.35
2019-05-09T07:28:07.514Z,55.19
2019-05-09T07:30:33.783Z,54.68
2019-05-09T07:33:00.974Z,52.54
2019-05-09T07:35:28.411Z,47.84
2019-05-09T07:37:57.731Z,49.02
2019-05-09T07:40:27.930Z,47.24
2019-05-09T07:42:53.335Z,47.01
2019-05-09T07:45:20.406Z,45.38
2019-05-09T07:47:48.003Z,46.88
2019-05-09T07:50:15.257Z,47.30
2019-05-09T07:52:42.653Z,48.02
2019-05-09T07:55:09.729Z,46.59
2019-05-09T07:57:45.010Z,46.87
2019-05-09T08:00:07.619Z,48.31
2019-05-09T08:02:34.397Z,48.04
2019-05-09T08:05:01.789Z,47.61
2019-05-09T08:07:29.257Z,48.02
2019-05-09T08:09:57.951Z,48.17
2019-05-09T08:12:25.177Z,50.05
2019-05-09T08:15:07.542Z,53.93
2019-05-09T08:17:21.634Z,57.73
2019-05-09T08:19:50.051Z,57.60
2019-05-09T08:22:24.910Z,59.51
2019-05-09T08:24:48.345Z,59.05
2019-05-09T08:27:17.499Z,59.33
2019-05-09T08:29:44.575Z,59.44
2019-05-09T08:32:12.012Z,59.95
2019-05-09T08:34:39.097Z,59.67
2019-05-09T08:37:08.104Z,59.25
2019-05-09T08:39:38.243Z,60.26
2019-05-09T08:42:08.440Z,60.51
2019-05-09T08:44:37.762Z,61.17
2019-05-09T08:47:04.336Z,62.15
2019-05-09T08:49:31.428Z,63.57
2019-05-09T08:52:10.095Z,65.22
2019-05-09T08:54:27.662Z,68.22
2019-05-09T08:56:55.099Z,69.62
2019-05-09T08:59:22.540Z,71.84
2019-05-09T09:02:11.194Z,72.93
2019-05-09T09:04:19.036Z,73.60
2019-05-09T09:06:48.196Z,74.54
2019-05-09T09:09:15.029Z,73.76
2019-05-09T09:11:42.098Z,75.33
2019-05-09T09:14:09.405Z,74.33
2019-05-09T09:16:37.925Z,72.97
2019-05-09T09:19:05.415Z,72.68
2019-05-09T09:21:32.833Z,73.15
2019-05-09T09:23:59.872Z,73.78
2019-05-09T09:26:27.827Z,72.57
2019-05-09T09:28:57.576Z,73.21
2019-05-09T09:31:24.384Z,72.67
2019-05-09T09:33:51.427Z,73.88
2019-05-09T09:36:18.479Z,73.07
2019-05-09T09:38:47.957Z,74.51
2019-05-09T09:41:14.593Z,75.56
2019-05-09T09:43:41.969Z,76.67
2019-05-09T09:46:14.388Z,78.32
2019-05-09T09:48:38.846Z,78.17
2019-05-09T09:51:08.072Z,79.29
2019-05-09T09:53:35.295Z,79.16
2019-05-09T09:56:02.409Z,79.57
2019-05-09T09:58:29.783Z,81.23
2019-05-09T10:00:58.380Z,81.35
2019-05-09T10:03:25.929Z,81.54
2019-05-09T10:05:53.282Z,81.63
2019-05-09T10:08:20.653Z,81.33
2019-05-09T10:10:48.560Z,80.62
2019-05-09T10:13:18.329Z,80.53
2019-05-09T10:15:47.306Z,79.59
2019-05-09T10:18:13.857Z,79.85
2019-05-09T10:20:40.914Z,79.73
2019-05-09T10:23:15.177Z,79.85
2019-05-09T10:25:38.222Z,78.71
2019-05-09T10:28:05.558Z,77.48
2019-05-09T10:30:32.676Z,76.47
2019-05-09T10:33:00.027Z,77.54
2019-05-09T10:35:28.147Z,74.65
2019-05-09T10:37:58.939Z,76.20
2019-05-09T10:40:27.955Z,76.46
2019-05-09T10:42:54.408Z,76.69
2019-05-09T10:45:21.441Z,77.73
2019-05-09T10:47:48.767Z,76.12
2019-05-09T10:50:18.318Z,74.76
2019-05-09T10:52:44.814Z,72.52
2019-05-09T10:55:11.924Z,70.37
2019-05-09T10:57:42.435Z,70.51
2019-05-09T11:00:08.826Z,68.89
2019-05-09T11:02:36.031Z,69.94
2019-05-09T11:05:03.325Z,70.16
2019-05-09T11:07:31.506Z,71.62
2019-05-09T11:09:58.996Z,71.88
2019-05-09T11:12:27.574Z,71.79
2019-05-09T11:14:55.109Z,71.79
2019-05-09T11:17:23.127Z,70.91
2019-05-09T11:19:50.466Z,72.28
2019-05-09T11:22:18.443Z,70.64
2019-05-09T11:24:48.119Z,70.45
2019-05-09T11:27:14.535Z,72.18
2019-05-09T11:29:41.578Z,72.93
2019-05-09T11:32:08.634Z,71.20
2019-05-09T11:34:37.586Z,70.61
2019-05-09T11:37:04.413Z,72.19
2019-05-09T11:39:36.556Z,74.11
2019-05-09T11:42:00.455Z,72.93
2019-05-09T11:44:27.547Z,73.33
2019-05-09T11:46:54.615Z,72.43
2019-05-09T11:49:21.964Z,73.09
2019-05-09T11:51:49.342Z,73.14
2019-05-09T11:54:19.043Z,72.29
2019-05-09T11:56:48.020Z,73.01
2019-05-09T11:59:14.213Z,73.63
2019-05-09T12:01:41.241Z,74.80
2019-05-09T12:04:08.579Z,76.24
2019-05-09T12:06:38.044Z,76.74
2019-05-09T12:09:04.370Z,77.36
2019-05-09T12:11:31.403Z,78.01
2019-05-09T12:13:58.484Z,77.72
2019-05-09T12:16:27.735Z,78.69
2019-05-09T12:18:54.302Z,79.50
2019-05-09T12:21:21.336Z,79.97
2019-05-09T12:23:49.116Z,81.74
2019-05-09T12:26:17.971Z,82.43
2019-05-09T12:28:48.462Z,83.03
2019-05-09T12:31:17.819Z,84.05
2019-05-09T12:33:44.291Z,85.06
2019-05-09T12:36:11.327Z,85.04
2019-05-09T12:38:38.939Z,85.38
2019-05-09T12:41:07.822Z,85.19
2019-05-09T12:43:34.982Z,85.56
2019-05-09T12:46:02.021Z,85.36
2019-05-09T12:48:29.374Z,85.13
2019-05-09T12:50:58.483Z,84.89
2019-05-09T12:53:27.388Z,85.79
2019-05-09T12:55:53.948Z,84.64
2019-05-09T12:58:21.326Z,84.96
2019-05-09T13:00:51.848Z,83.81
2019-05-09T13:03:17.897Z,84.92
2019-05-09T13:05:47.005Z,85.00
2019-05-09T13:08:14.427Z,84.79
2019-05-09T13:10:41.782Z,84.69
2019-05-09T13:13:09.063Z,84.77
2019-05-09T13:15:38.439Z,84.44
2019-05-09T13:18:04.879Z,85.23
2019-05-09T13:20:31.938Z,85.00
2019-05-09T13:22:59.002Z,84.71
2019-05-09T13:25:26.037Z,83.93
2019-05-09T13:27:53.391Z,84.68
2019-05-09T13:30:20.438Z,83.88
2019-05-09T13:32:48.497Z,84.74
2019-05-09T13:35:19.503Z,84.47
2019-05-09T13:37:44.636Z,84.82
2019-05-09T13:40:11.696Z,85.12
2019-05-09T13:42:39.693Z,85.16
2019-05-09T13:45:08.311Z,85.29
2019-05-09T13:47:37.862Z,85.37
2019-05-09T13:50:04.506Z,85.00
2019-05-09T13:52:31.837Z,84.49
2019-05-09T13:54:58.896Z,83.09
2019-05-09T13:57:27.737Z,83.46
2019-05-09T13:59:54.953Z,81.81
2019-05-09T14:02:22.300Z,81.52
2019-05-09T14:04:49.353Z,82.15
2019-05-09T14:07:19.054Z,82.29
2019-05-09T14:09:48.164Z,82.84
2019-05-09T14:12:14.572Z,83.57
2019-05-09T14:14:41.926Z,83.42
2019-05-09T14:17:13.535Z,84.13
2019-05-09T14:19:45.692Z,84.44
2019-05-09T14:22:08.260Z,85.01
2019-05-09T14:24:35.468Z,84.80
2019-05-09T14:27:02.516Z,85.09
2019-05-09T14:29:31.481Z,84.45
2019-05-09T14:31:58.309Z,84.39
2019-05-09T14:34:25.707Z,84.77
2019-05-09T14:36:52.749Z,84.39
2019-05-09T14:39:19.785Z,84.30
2019-05-09T14:41:47.412Z,84.98
2019-05-09T14:44:14.812Z,84.83
2019-05-09T14:46:41.866Z,84.25
2019-05-09T14:49:08.898Z,83.69
2019-05-09T14:51:38.059Z,84.92
2019-05-09T14:54:04.689Z,83.73
2019-05-09T14:56:32.090Z,82.85
2019-05-09T14:58:59.442Z,83.11
2019-05-09T15:01:28.667Z,84.15
2019-05-09T15:03:55.484Z,83.87
2019-05-09T15:06:22.778Z,84.18
2019-05-09T15:08:49.910Z,83.85
2019-05-09T15:11:18.217Z,84.34
2019-05-09T15:13:47.555Z,83.52
2019-05-09T15:21:31.779Z,82.65
2019-05-09T15:23:59.387Z,82.91
2019-05-09T15:26:27.533Z,83.72
2019-05-09T15:28:57.725Z,83.10
2019-05-09T15:31:23.899Z,83.48
2019-05-09T15:33:50.930Z,85.37
2019-05-09T15:36:19.345Z,84.95
2019-05-09T15:38:48.662Z,85.36
2019-05-09T15:41:18.341Z,85.49
2019-05-09T15:43:45.081Z,85.25
2019-05-09T15:46:12.114Z,85.97
2019-05-09T15:48:39.516Z,85.95
2019-05-09T15:51:07.545Z,87.29
2019-05-09T15:53:34.698Z,86.61
2019-05-09T15:56:02.462Z,86.75
2019-05-09T15:58:29.530Z,87.30
2019-05-09T16:00:58.924Z,87.73
2019-05-09T16:03:27.895Z,87.52
2019-05-09T16:05:54.818Z,88.09
2019-05-09T16:08:21.890Z,86.78
2019-05-09T16:10:49.312Z,86.37
2019-05-09T16:13:17.782Z,86.79
2019-05-09T16:15:45.233Z,87.29
2019-05-09T16:18:12.429Z,87.84
2019-05-09T16:20:41.265Z,87.95
2019-05-09T16:23:08.882Z,88.24
2019-05-09T16:25:38.550Z,87.84
2019-05-09T16:28:04.666Z,88.02
2019-05-09T16:30:31.697Z,88.12
2019-05-09T16:32:58.831Z,88.52
2019-05-09T16:35:25.856Z,88.56
2019-05-09T16:38:05.180Z,88.64
2019-05-09T16:40:22.029Z,88.45
2019-05-09T16:42:49.070Z,89.34
2019-05-09T16:45:18.215Z,89.36
2019-05-09T16:47:45.090Z,89.68
2019-05-09T16:50:12.337Z,89.82
2019-05-09T16:52:43.410Z,90.14
2019-05-09T16:55:08.484Z,90.02
2019-05-09T16:57:37.733Z,90.03
2019-05-09T17:00:04.552Z,90.06
2019-05-09T17:02:31.941Z,89.52
2019-05-09T17:04:59.310Z,90.33
2019-05-09T17:07:27.833Z,90.91
2019-05-09T17:09:54.871Z,90.99
2019-05-09T17:12:22.168Z,90.81
2019-05-09T17:14:49.475Z,91.25
2019-05-09T17:17:17.837Z,91.30
2019-05-09T17:19:45.384Z,91.26
2019-05-09T17:22:12.656Z,91.23
2019-05-09T17:24:39.699Z,91.38
2019-05-09T17:27:08.706Z,91.68
2019-05-09T17:29:38.264Z,91.55
2019-05-09T17:32:07.586Z,91.64
2019-05-09T17:34:34.112Z,91.83
2019-05-09T17:37:01.473Z,91.89
2019-05-09T17:39:28.821Z,92.04
2019-05-09T17:41:58.259Z,91.23
2019-05-09T17:44:27.936Z,91.29
2019-05-09T17:46:54.009Z,91.42
2019-05-09T17:49:21.417Z,91.10
2019-05-09T17:51:48.772Z,91.58
2019-05-09T17:54:18.108Z,91.66
2019-05-09T17:56:44.553Z,91.52
2019-05-09T17:59:11.860Z,91.62
2019-05-09T18:01:38.902Z,91.49
2019-05-09T18:04:08.925Z,91.40
2019-05-09T18:06:37.724Z,91.17
2019-05-09T18:09:04.154Z,91.20
2019-05-09T18:11:31.156Z,91.26
2019-05-09T18:13:58.200Z,91.39
2019-05-09T18:16:28.282Z,90.93
2019-05-09T18:18:54.290Z,90.70
2019-05-09T18:21:21.319Z,90.71
2019-05-09T18:23:48.354Z,90.90
2019-05-09T18:26:15.755Z,90.97
2019-05-09T18:28:44.831Z,91.34
2019-05-09T18:31:11.886Z,91.33
2019-05-09T18:33:38.912Z,91.38
2019-05-09T18:36:05.960Z,91.28
2019-05-09T18:38:33.333Z,91.33
2019-05-09T18:41:00.689Z,91.38
2019-05-09T18:43:27.745Z,91.66
2019-05-09T18:45:54.769Z,91.68
2019-05-09T18:48:21.801Z,91.71
2019-05-09T18:50:49.189Z,91.55
2019-05-09T18:53:16.220Z,91.84
2019-05-09T18:55:43.509Z,91.49
2019-05-09T18:58:10.864Z,91.64
2019-05-09T19:00:37.911Z,91.72
2019-05-09T19:03:05.262Z,91.71
2019-05-09T19:05:32.599Z,91.64
2019-05-09T19:07:59.635Z,91.83
2019-05-09T19:10:26.678Z,91.74
2019-05-09T19:15:39.256Z,91.69
2019-05-09T19:18:06.286Z,91.74
2019-05-09T19:20:33.631Z,91.99
2019-05-09T19:23:00.659Z,92.08
2019-05-09T19:25:27.709Z,92.29
2019-05-09T19:27:55.004Z,92.29
2019-05-09T19:30:23.458Z,92.30
2019-05-09T19:32:50.505Z,92.28
2019-05-09T19:35:17.792Z,92.30
2019-05-09T19:37:45.079Z,92.32
2019-05-09T19:40:12.118Z,92.24
2019-05-09T19:42:39.531Z,92.28
2019-05-09T19:45:06.869Z,91.92
2019-05-09T19:47:33.983Z,92.01
2019-05-09T19:50:01.014Z,91.84
2019-05-09T19:52:37.712Z,91.33
2019-05-09T19:54:59.485Z,91.25
2019-05-09T19:57:26.820Z,90.85
2019-05-09T19:59:54.924Z,90.81
2019-05-09T20:02:22.273Z,90.85
2019-05-09T20:04:49.304Z,91.05
2019-05-09T20:07:16.649Z,91.33
2019-05-09T20:09:43.828Z,91.28
2019-05-09T20:12:10.877Z,91.19
2019-05-09T20:14:37.985Z,90.93
2019-05-09T20:17:05.052Z,90.76
2019-05-09T20:19:32.480Z,90.44
2019-05-09T20:21:59.525Z,90.34
2019-05-09T20:24:26.911Z,90.22
2019-05-09T20:26:53.958Z,90.11
2019-05-09T20:29:20.987Z,90.46
2019-05-09T20:31:48.032Z,90.29
2019-05-09T20:34:15.070Z,90.22
2019-05-09T20:36:42.528Z,90.26
2019-05-09T20:39:10.012Z,90.04
2019-05-09T20:41:37.048Z,89.52
2019-05-09T20:44:04.165Z,89.72
2019-05-09T20:46:31.365Z,89.65
2019-05-09T20:48:58.433Z,90.06
2019-05-09T20:51:25.452Z,89.72
2019-05-09T20:53:53.471Z,89.59
2019-05-09T20:56:20.506Z,89.91
2019-05-09T20:58:47.848Z,89.82
2019-05-09T21:01:15.185Z,89.73
2019-05-09T21:03:57.759Z,89.49
2019-05-09T21:06:14.252Z,89.14
2019-05-09T21:08:41.298Z,89.12
2019-05-09T21:11:08.610Z,89.12
2019-05-09T21:13:47.848Z,88.48
2019-05-09T21:16:04.392Z,89.02
2019-05-09T21:18:31.623Z,89.13
2019-05-09T21:20:58.965Z,89.68
2019-05-09T21:23:26.246Z,89.65
2019-05-09T21:25:53.284Z,89.98
2019-05-09T21:28:20.601Z,90.07
2019-05-09T21:30:47.638Z,90.18
2019-05-09T21:33:15.023Z,90.25
2019-05-09T21:35:42.053Z,90.10
2019-05-09T21:38:09.099Z,90.49
2019-05-09T21:40:36.134Z,90.44
2019-05-09T21:43:03.259Z,90.54
2019-05-09T21:45:30.277Z,90.52
2019-05-09T21:47:57.325Z,90.54
2019-05-09T21:50:24.355Z,90.51
2019-05-09T21:52:51.413Z,90.21
2019-05-09T21:55:18.448Z,90.38
2019-05-09T21:57:45.795Z,89.51
2019-05-09T22:00:12.840Z,89.33
2019-05-09T22:02:41.572Z,89.74
2019-05-09T22:05:08.995Z,89.65
2019-05-09T22:07:36.352Z,89.54
2019-05-09T22:10:03.403Z,89.42
2019-05-09T22:12:30.901Z,89.45
2019-05-09T22:14:57.943Z,89.24
2019-05-09T22:17:24.978Z,88.99
2019-05-09T22:19:52.024Z,88.88
2019-05-09T22:22:19.073Z,89.04
2019-05-09T22:24:46.103Z,88.78
2019-05-09T22:27:13.444Z,88.51
2019-05-09T22:29:40.488Z,88.08
2019-05-09T22:32:07.522Z,88.28
2019-05-09T22:34:34.883Z,88.43
2019-05-09T22:37:02.879Z,88.31
2019-05-09T22:39:30.207Z,88.02
2019-05-09T22:41:57.565Z,88.20
2019-05-09T22:44:24.937Z,88.02
2019-05-09T22:46:52.273Z,88.49
2019-05-09T22:49:19.321Z,88.45
2019-05-09T22:51:46.596Z,88.46
2019-05-09T22:54:13.664Z,87.03
2019-05-09T22:56:42.005Z,87.56
2019-05-09T22:59:09.357Z,87.58
2019-05-09T23:01:36.387Z,87.85
2019-05-09T23:04:03.763Z,87.43
2019-05-09T23:06:31.046Z,87.41
2019-05-09T23:08:58.171Z,87.69
2019-05-09T23:11:25.190Z,87.54
2019-05-09T23:13:52.245Z,87.59
2019-05-09T23:16:19.620Z,87.18
2019-05-09T23:18:46.917Z,87.70
2019-05-09T23:21:13.953Z,87.37
2019-05-09T23:23:40.991Z,87.38
2019-05-09T23:26:08.340Z,87.53
2019-05-09T23:28:35.676Z,87.49
2019-05-09T23:31:02.723Z,87.38
2019-05-09T23:33:30.076Z,87.71
2019-05-09T23:35:57.368Z,87.75
2019-05-09T23:38:24.688Z,88.07
2019-05-09T23:40:51.803Z,88.31
2019-05-09T23:43:18.833Z,88.30
2019-05-09T23:45:45.882Z,88.06
2019-05-09T23:48:12.912Z,88.39
2019-05-09T23:50:40.196Z,88.93
2019-05-09T23:53:07.588Z,89.43
2019-05-09T23:55:34.940Z,89.80
2019-05-09T23:58:02.369Z,89.86
